createdAt,value
2023-01-22T00:01:22.484Z,22.70
2023-01-22T00:03:50.230Z,18.20
2023-01-22T00:06:17.338Z,25.58
2023-01-22T00:08:45.269Z,17.77
2023-01-22T00:11:12.937Z,17.85
2023-01-22T00:13:40.255Z,34.15
2023-01-22T00:16:08.913Z,22.10
2023-01-22T00:18:35.826Z,16.30
2023-01-22T00:21:03.718Z,20.45
2023-01-22T00:23:30.788Z,19.48
2023-01-22T00:26:11.709Z,19.38
2023-01-22T00:28:41.652Z,18.08
2023-01-22T00:31:13.654Z,19.90
2023-01-22T00:33:43.453Z,22.13
2023-01-22T00:36:18.372Z,22.88
2023-01-22T00:38:46.660Z,19.45
2023-01-22T00:41:15.043Z,21.40
2023-01-22T00:43:43.137Z,20.45
2023-01-22T00:46:15.125Z,19.42
2023-01-22T00:48:45.334Z,17.90
2023-01-22T00:51:14.966Z,18.70
2023-01-22T00:53:44.805Z,19.33
2023-01-22T00:56:14.235Z,24.58
2023-01-22T00:58:41.226Z,20.08
2023-01-22T01:01:08.429Z,20.17
2023-01-22T01:03:38.451Z,19.38
2023-01-22T01:06:11.410Z,22.15
2023-01-22T01:08:42.270Z,19.40
2023-01-22T01:11:15.092Z,17.35
2023-01-22T01:13:45.237Z,18.77
2023-01-22T01:16:16.633Z,18.70
2023-01-22T01:18:45.009Z,19.23
2023-01-22T01:21:12.929Z,21.15
2023-01-22T01:23:40.220Z,21.05
2023-01-22T01:26:09.876Z,18.85
2023-01-22T01:28:39.701Z,19.80
2023-01-22T01:31:10.859Z,19.45
2023-01-22T01:33:39.270Z,22.90
2023-01-22T01:36:11.753Z,20.10
2023-01-22T01:38:39.377Z,19.92
2023-01-22T01:41:09.245Z,20.33
2023-01-22T01:43:37.212Z,24.80
2023-01-22T01:46:29.853Z,21.52
2023-01-22T01:48:57.034Z,21.52
2023-01-22T01:51:31.502Z,20.58
2023-01-22T01:54:00.791Z,19.33
2023-01-22T01:56:37.156Z,20.95
2023-01-22T01:59:09.705Z,23.73
2023-01-22T02:01:38.682Z,22.88
2023-01-22T02:04:06.373Z,21.10
2023-01-22T02:06:33.208Z,20.95
2023-01-22T02:09:00.480Z,20.52
2023-01-22T02:11:30.159Z,22.63
2023-01-22T02:14:11.064Z,21.58
2023-01-22T02:16:38.214Z,21.13
2023-01-22T02:19:06.063Z,25.17
2023-01-22T02:21:50.956Z,20.88
2023-01-22T02:24:19.643Z,22.88
2023-01-22T02:26:46.816Z,20.95
2023-01-22T02:29:15.147Z,21.20
2023-01-22T02:31:42.780Z,17.42
2023-01-22T02:34:11.576Z,28.23
2023-01-22T02:36:40.515Z,20.10
2023-01-22T02:39:09.424Z,23.60
2023-01-22T02:41:38.359Z,23.10
2023-01-22T02:44:07.544Z,22.85
2023-01-22T02:46:34.786Z,20.60
2023-01-22T02:49:01.807Z,21.80
2023-01-22T02:51:29.028Z,23.40
2023-01-22T02:53:56.945Z,20.38
2023-01-22T02:56:23.803Z,22.58
2023-01-22T02:58:51.019Z,21.40
2023-01-22T03:01:23.743Z,21.80
2023-01-22T03:03:55.427Z,24.70
2023-01-22T03:06:30.772Z,21.35
2023-01-22T03:09:00.804Z,21.25
2023-01-22T03:11:30.735Z,27.73
2023-01-22T03:14:16.452Z,21.38
2023-01-22T03:17:03.121Z,27.77
2023-01-22T03:19:49.293Z,23.58
2023-01-22T03:22:26.971Z,22.45
2023-01-22T03:24:58.917Z,21.05
2023-01-22T03:27:28.336Z,18.85
2023-01-22T03:29:56.794Z,21.80
2023-01-22T03:32:24.154Z,21.60
2023-01-22T03:34:53.666Z,24.38
2023-01-22T03:37:20.490Z,19.85
2023-01-22T03:39:47.365Z,24.38
2023-01-22T03:42:15.273Z,25.10
2023-01-22T03:44:42.152Z,24.85
2023-01-22T03:47:10.233Z,25.27
2023-01-22T03:49:37.235Z,24.73
2023-01-22T03:52:04.095Z,21.15
2023-01-22T03:54:31.543Z,20.75
2023-01-22T03:56:58.914Z,23.73
2023-01-22T03:59:26.708Z,23.65
2023-01-22T04:01:54.683Z,24.65
2023-01-22T04:04:21.901Z,24.35
2023-01-22T04:06:49.787Z,26.83
2023-01-22T04:09:16.834Z,22.35
2023-01-22T04:11:43.650Z,21.50
2023-01-22T04:14:11.366Z,22.83
2023-01-22T04:16:39.222Z,19.73
2023-01-22T04:19:06.105Z,19.90
2023-01-22T04:21:32.903Z,22.33
2023-01-22T04:24:00.100Z,23.23
2023-01-22T04:26:26.936Z,21.20
2023-01-22T04:28:53.897Z,18.40
2023-01-22T04:31:21.854Z,20.63
2023-01-22T04:33:48.852Z,23.02
2023-01-22T04:36:15.899Z,30.33
2023-01-22T04:38:42.701Z,23.77
2023-01-22T04:41:10.471Z,21.67
2023-01-22T04:43:39.410Z,21.48
2023-01-22T04:46:06.469Z,21.08
2023-01-22T04:48:33.522Z,21.52
2023-01-22T04:51:00.568Z,22.58
2023-01-22T04:53:27.450Z,27.42
2023-01-22T04:55:54.808Z,22.92
2023-01-22T04:58:24.556Z,20.67
2023-01-22T05:00:51.529Z,23.58
2023-01-22T05:03:18.339Z,22.67
2023-01-22T05:05:45.324Z,22.23
2023-01-22T05:08:12.176Z,24.33
2023-01-22T05:10:39.056Z,22.55
2023-01-22T05:13:07.322Z,24.20
2023-01-22T05:15:35.288Z,22.63
2023-01-22T05:18:02.172Z,23.15
2023-01-22T05:20:29.026Z,25.52
2023-01-22T05:22:55.891Z,26.40
2023-01-22T05:25:22.693Z,21.98
2023-01-22T05:27:49.981Z,22.48
2023-01-22T05:30:18.363Z,26.10
2023-01-22T05:32:45.845Z,23.67
2023-01-22T05:35:13.439Z,25.48
2023-01-22T05:37:41.094Z,23.40
2023-01-22T05:40:09.877Z,25.10
2023-01-22T05:42:36.693Z,23.85
2023-01-22T05:45:05.255Z,23.42
2023-01-22T05:47:32.207Z,25.50
2023-01-22T05:49:59.182Z,25.60
2023-01-22T05:52:25.970Z,25.75
2023-01-22T05:54:52.808Z,27.13
2023-01-22T05:57:21.038Z,24.33
2023-01-22T05:59:48.644Z,23.80
2023-01-22T06:02:15.711Z,20.85
2023-01-22T06:04:42.810Z,24.33
2023-01-22T06:07:09.858Z,27.40
2023-01-22T06:09:36.658Z,24.58
2023-01-22T06:12:03.771Z,26.73
2023-01-22T06:14:30.610Z,27.98
2023-01-22T06:16:57.424Z,25.50
2023-01-22T06:19:25.183Z,20.77
2023-01-22T06:21:51.980Z,22.85
2023-01-22T06:24:18.859Z,26.77
2023-01-22T06:26:46.108Z,23.20
2023-01-22T06:29:13.047Z,21.90
2023-01-22T06:31:39.936Z,24.13
2023-01-22T06:34:06.852Z,23.88
2023-01-22T06:36:33.979Z,25.13
2023-01-22T06:39:00.857Z,22.25
2023-01-22T06:41:27.642Z,27.48
2023-01-22T06:43:54.546Z,23.63
2023-01-22T06:46:21.617Z,27.17
2023-01-22T06:48:49.889Z,25.13
2023-01-22T06:51:16.964Z,20.23
2023-01-22T06:53:43.913Z,22.17
2023-01-22T06:56:12.351Z,26.17
2023-01-22T06:58:39.163Z,24.15
2023-01-22T07:01:06.419Z,25.70
2023-01-22T07:03:33.581Z,24.30
2023-01-22T07:06:03.640Z,26.02
2023-01-22T07:08:33.162Z,25.52
2023-01-22T07:11:00.501Z,27.25
2023-01-22T07:13:27.352Z,25.77
2023-01-22T07:15:54.553Z,25.77
2023-01-22T07:18:23.759Z,29.92
2023-01-22T07:20:51.165Z,25.70
2023-01-22T07:23:18.186Z,26.25
2023-01-22T07:25:45.862Z,29.50
2023-01-22T07:28:15.040Z,28.27
2023-01-22T07:30:43.492Z,30.42
2023-01-22T07:33:11.638Z,32.67
2023-01-22T07:35:38.535Z,41.13
2023-01-22T07:38:06.036Z,34.40
2023-01-22T07:40:33.163Z,38.80
2023-01-22T07:43:00.275Z,41.20
2023-01-22T07:45:27.112Z,41.35
2023-01-22T07:47:59.327Z,37.42
2023-01-22T07:50:29.953Z,29.65
2023-01-22T07:52:57.467Z,38.95
2023-01-22T07:55:24.354Z,43.10
2023-01-22T07:58:02.224Z,42.67
2023-01-22T08:00:29.924Z,42.40
2023-01-22T08:02:56.758Z,49.10
2023-01-22T08:05:23.953Z,46.72
2023-01-22T08:07:50.833Z,48.97
2023-01-22T08:10:18.265Z,52.38
2023-01-22T08:12:46.518Z,64.75
2023-01-22T08:15:14.595Z,54.58
2023-01-22T08:17:42.376Z,55.08
2023-01-22T08:20:10.749Z,59.53
2023-01-22T08:22:37.652Z,58.17
2023-01-22T08:25:04.928Z,177.13
2023-01-22T08:27:31.886Z,107.45
2023-01-22T08:29:58.719Z,61.10
2023-01-22T08:32:25.581Z,63.33
2023-01-22T08:34:54.283Z,57.88
2023-01-22T08:37:24.708Z,52.88
2023-01-22T08:39:51.594Z,57.60
2023-01-22T08:42:18.398Z,56.72
2023-01-22T08:44:45.183Z,60.10
2023-01-22T08:47:12.019Z,59.58
2023-01-22T08:49:39.001Z,61.90
2023-01-22T08:52:06.251Z,57.40
2023-01-22T08:54:33.113Z,55.40
2023-01-22T08:57:00.033Z,63.03
2023-01-22T08:59:27.635Z,68.88
2023-01-22T09:01:55.190Z,65.95
2023-01-22T09:04:22.019Z,54.50
2023-01-22T09:06:48.876Z,60.80
2023-01-22T09:09:15.733Z,63.50
2023-01-22T09:11:42.592Z,64.30
2023-01-22T09:14:10.025Z,69.22
2023-01-22T09:16:37.371Z,65.93
2023-01-22T09:19:05.537Z,57.97
2023-01-22T09:21:37.460Z,58.42
2023-01-22T09:24:05.883Z,61.72
2023-01-22T09:26:33.051Z,58.38
2023-01-22T09:29:01.308Z,52.40
2023-01-22T09:31:28.464Z,68.43
2023-01-22T09:33:58.434Z,62.75
2023-01-22T09:36:26.391Z,61.67
2023-01-22T09:38:53.159Z,64.72
2023-01-22T09:41:39.134Z,67.45
2023-01-22T09:44:33.470Z,51.72
2023-01-22T09:47:06.508Z,60.30
2023-01-22T09:49:53.871Z,57.47
2023-01-22T09:52:21.692Z,56.17
2023-01-22T09:54:49.135Z,50.10
2023-01-22T09:57:30.704Z,58.08
2023-01-22T09:59:59.007Z,53.97
2023-01-22T10:02:48.906Z,51.83
2023-01-22T10:05:24.193Z,57.53
2023-01-22T10:08:02.514Z,55.85
2023-01-22T10:10:30.526Z,84.78
2023-01-22T10:13:10.101Z,67.97
2023-01-22T10:15:37.157Z,51.45
2023-01-22T10:18:17.805Z,55.72
2023-01-22T10:20:45.020Z,52.55
2023-01-22T10:23:18.972Z,53.17
2023-01-22T10:25:46.361Z,55.45
2023-01-22T10:28:15.652Z,60.30
2023-01-22T10:30:48.178Z,60.15
2023-01-22T10:33:23.353Z,54.53
2023-01-22T10:35:56.574Z,54.33
2023-01-22T10:38:28.417Z,58.30
2023-01-22T10:41:01.854Z,56.80
2023-01-22T10:43:36.855Z,59.30
2023-01-22T10:46:33.300Z,55.42
2023-01-22T10:49:02.671Z,55.78
2023-01-22T10:51:38.212Z,51.45
2023-01-22T10:54:20.135Z,50.55
2023-01-22T10:56:47.438Z,43.22
2023-01-22T10:59:23.437Z,39.53
2023-01-22T11:01:58.245Z,40.28
2023-01-22T11:04:33.296Z,47.33
2023-01-22T11:07:19.858Z,41.92
2023-01-22T11:10:25.487Z,30.90
2023-01-22T11:13:12.254Z,34.95
2023-01-22T11:16:09.554Z,35.90
2023-01-22T11:18:40.841Z,38.03
2023-01-22T11:21:22.973Z,33.42
2023-01-22T11:24:02.776Z,31.77
2023-01-22T11:26:43.974Z,28.48
2023-01-22T11:29:41.624Z,36.10
2023-01-22T11:32:33.019Z,54.42
2023-01-22T11:35:36.190Z,28.92
2023-01-22T11:38:40.028Z,19.35
2023-01-22T11:41:27.260Z,29.55
2023-01-22T11:44:45.863Z,26.05
2023-01-22T11:47:19.837Z,26.45
2023-01-22T11:50:26.914Z,27.05
2023-01-22T11:53:24.784Z,26.85
2023-01-22T11:56:15.384Z,24.45
2023-01-22T11:58:57.012Z,25.42
2023-01-22T12:02:06.702Z,20.45
2023-01-22T12:04:49.787Z,25.88
2023-01-22T12:07:38.220Z,23.13
2023-01-22T12:10:23.133Z,23.63
2023-01-22T12:13:03.379Z,27.23
2023-01-22T12:15:48.237Z,26.45
2023-01-22T12:18:42.903Z,23.80
2023-01-22T12:21:30.133Z,25.25
2023-01-22T12:23:58.959Z,26.88
2023-01-22T12:26:30.938Z,23.77
2023-01-22T12:29:21.075Z,36.55
2023-01-22T12:31:51.186Z,23.08
2023-01-22T12:34:32.717Z,23.50
2023-01-22T12:37:02.201Z,20.48
2023-01-22T12:39:41.995Z,21.65
2023-01-22T12:42:32.833Z,22.83
2023-01-22T12:45:14.096Z,22.60
2023-01-22T12:48:01.473Z,23.48
2023-01-22T12:50:28.265Z,24.98
2023-01-22T12:53:04.576Z,20.83
2023-01-22T12:55:43.929Z,21.00
2023-01-22T12:58:24.032Z,23.75
2023-01-22T13:01:11.783Z,24.17
2023-01-22T13:03:41.481Z,22.15
2023-01-22T13:06:19.959Z,21.38
2023-01-22T13:08:47.252Z,21.25
2023-01-22T13:11:35.067Z,20.98
2023-01-22T13:14:28.006Z,31.85
2023-01-22T13:17:04.888Z,16.92
2023-01-22T13:19:44.827Z,21.42
2023-01-22T13:22:27.536Z,28.45
2023-01-22T13:24:57.693Z,22.73
2023-01-22T13:27:35.206Z,26.55
2023-01-22T13:30:31.459Z,27.95
2023-01-22T13:33:17.088Z,26.63
2023-01-22T13:35:48.282Z,25.17
2023-01-22T13:38:33.803Z,31.83
2023-01-22T13:41:26.095Z,28.73
2023-01-22T13:43:54.167Z,25.85
2023-01-22T13:46:21.067Z,26.60
2023-01-22T13:48:48.965Z,25.25
2023-01-22T13:51:19.976Z,24.67
2023-01-22T13:53:53.795Z,22.52
2023-01-22T13:56:26.556Z,23.20
2023-01-22T13:59:37.585Z,26.88
2023-01-22T14:02:25.473Z,23.13
2023-01-22T14:04:52.276Z,20.45
2023-01-22T14:07:37.257Z,21.00
2023-01-22T14:10:15.185Z,15.13
2023-01-22T14:12:43.223Z,16.35
2023-01-22T14:15:21.045Z,17.88
2023-01-22T14:17:50.676Z,16.70
2023-01-22T14:20:19.039Z,17.92
2023-01-22T14:22:46.377Z,18.23
2023-01-22T14:25:13.692Z,20.23
2023-01-22T14:27:47.679Z,21.35
2023-01-22T14:30:19.258Z,18.65
2023-01-22T14:32:46.527Z,24.73
2023-01-22T14:35:24.368Z,24.33
2023-01-22T14:37:52.376Z,22.08
2023-01-22T14:40:22.071Z,24.85
2023-01-22T14:42:49.837Z,21.10
2023-01-22T14:45:19.286Z,21.75
2023-01-22T14:47:51.679Z,22.45
2023-01-22T14:50:20.648Z,20.75
2023-01-22T14:52:48.920Z,25.10
2023-01-22T14:55:15.948Z,33.58
2023-01-22T14:57:42.810Z,36.80
2023-01-22T15:00:14.034Z,30.17
2023-01-22T15:02:41.685Z,29.88
2023-01-22T15:05:10.016Z,25.58
2023-01-22T15:07:38.182Z,19.35
2023-01-22T15:10:07.222Z,24.38
2023-01-22T15:12:34.242Z,24.63
2023-01-22T15:15:01.154Z,27.77
2023-01-22T15:17:28.019Z,22.60
2023-01-22T15:19:54.888Z,25.40
2023-01-22T15:22:21.707Z,29.98
2023-01-22T15:24:48.512Z,26.00
2023-01-22T15:27:18.556Z,20.85
2023-01-22T15:29:46.636Z,19.42
2023-01-22T15:32:14.964Z,21.63
2023-01-22T15:34:41.822Z,21.10
2023-01-22T15:37:09.251Z,54.88
2023-01-22T15:39:36.077Z,26.67
2023-01-22T15:42:03.132Z,19.73
2023-01-22T15:44:30.773Z,27.85
2023-01-22T15:46:59.496Z,40.38
2023-01-22T15:49:26.714Z,85.07
2023-01-22T15:51:53.765Z,54.47
2023-01-22T15:54:20.829Z,24.77
2023-01-22T15:56:47.881Z,19.23
2023-01-22T15:59:14.981Z,23.42
2023-01-22T16:01:42.035Z,20.08
2023-01-22T16:04:14.962Z,18.83
2023-01-22T16:06:41.833Z,19.17
2023-01-22T16:09:08.847Z,21.90
2023-01-22T16:11:36.699Z,17.58
2023-01-22T16:14:04.118Z,15.23
2023-01-22T16:16:37.194Z,18.33
2023-01-22T16:19:07.503Z,22.25
2023-01-22T16:21:35.198Z,21.05
2023-01-22T16:24:03.217Z,19.60
2023-01-22T16:26:34.749Z,18.98
2023-01-22T16:29:25.372Z,19.15
2023-01-22T16:31:52.287Z,25.40
2023-01-22T16:34:21.448Z,21.50
2023-01-22T16:36:49.224Z,17.75
2023-01-22T16:39:23.045Z,19.25
2023-01-22T16:41:51.502Z,28.92
2023-01-22T16:44:24.455Z,17.35
2023-01-22T16:49:29.505Z,19.52
2023-01-22T16:52:13.097Z,22.75
2023-01-22T16:54:47.994Z,22.63
2023-01-22T16:57:14.907Z,28.90
2023-01-22T16:59:41.733Z,32.15
2023-01-22T17:02:23.666Z,25.52
2023-01-22T17:04:50.583Z,25.30
2023-01-22T17:07:32.393Z,28.05
2023-01-22T17:10:00.445Z,24.63
2023-01-22T17:12:27.656Z,25.77
2023-01-22T17:16:07.378Z,23.85
2023-01-22T17:18:34.203Z,26.33
2023-01-22T17:21:31.399Z,26.05
2023-01-22T17:23:58.317Z,32.17
2023-01-22T17:26:25.872Z,46.28
2023-01-22T17:28:53.314Z,38.10
2023-01-22T17:31:24.668Z,35.75
2023-01-22T17:33:55.838Z,29.42
2023-01-22T17:36:28.602Z,35.10
2023-01-22T17:39:00.062Z,34.95
2023-01-22T17:41:27.384Z,31.65
2023-01-22T17:43:56.305Z,36.47
2023-01-22T17:46:31.537Z,45.70
2023-01-22T17:49:00.969Z,41.40
2023-01-22T17:51:29.555Z,35.53
2023-01-22T17:54:08.020Z,34.25
2023-01-22T17:56:40.039Z,35.33
2023-01-22T17:59:07.893Z,23.33
2023-01-22T18:01:36.876Z,37.35
2023-01-22T18:04:07.731Z,35.38
2023-01-22T18:06:36.620Z,37.55
2023-01-22T18:09:06.489Z,45.25
2023-01-22T18:11:36.330Z,31.17
2023-01-22T18:14:07.382Z,28.63
2023-01-22T18:16:38.858Z,25.50
2023-01-22T18:19:07.379Z,29.42
2023-01-22T18:21:37.268Z,34.10
2023-01-22T18:24:06.984Z,33.95
2023-01-22T18:26:35.346Z,32.53
2023-01-22T18:29:02.652Z,32.95
2023-01-22T18:31:30.295Z,29.17
2023-01-22T18:34:03.330Z,29.55
2023-01-22T18:39:06.957Z,28.50
2023-01-22T18:41:34.087Z,26.20
2023-01-22T18:44:02.599Z,31.98
2023-01-22T18:46:33.852Z,30.10
2023-01-22T18:49:08.255Z,29.50
2023-01-22T18:51:35.896Z,34.15
2023-01-22T18:54:07.427Z,27.17
2023-01-22T18:56:36.908Z,35.50
2023-01-22T18:59:04.849Z,31.55
2023-01-22T19:01:35.622Z,28.27
2023-01-22T19:04:09.565Z,32.90
2023-01-22T19:06:38.664Z,25.95
2023-01-22T19:09:12.352Z,31.50
2023-01-22T19:11:42.477Z,37.25
2023-01-22T19:14:13.342Z,41.42
2023-01-22T19:16:43.014Z,43.05
2023-01-22T19:19:13.454Z,38.50
2023-01-22T19:21:46.871Z,40.25
2023-01-22T19:24:16.916Z,37.30
2023-01-22T19:26:46.390Z,38.47
2023-01-22T19:29:17.601Z,40.65
2023-01-22T19:31:47.790Z,35.97
2023-01-22T19:34:23.196Z,43.13
2023-01-22T19:36:54.815Z,47.30
2023-01-22T19:39:27.923Z,42.67
2023-01-22T19:41:55.059Z,52.05
2023-01-22T19:44:22.749Z,42.60
2023-01-22T19:46:49.921Z,40.58
2023-01-22T19:49:17.041Z,34.63
2023-01-22T19:51:44.332Z,34.53
2023-01-22T19:54:13.112Z,32.30
2023-01-22T19:56:45.497Z,43.83
2023-01-22T19:59:21.372Z,40.72
2023-01-22T20:01:50.040Z,36.72
2023-01-22T20:04:27.241Z,39.55
2023-01-22T20:07:01.358Z,40.90
2023-01-22T20:09:30.645Z,40.42
2023-01-22T20:11:58.612Z,39.20
2023-01-22T20:14:30.466Z,30.60
2023-01-22T20:16:59.386Z,28.88
2023-01-22T20:19:27.859Z,30.58
2023-01-22T20:21:55.016Z,29.08
2023-01-22T20:24:21.900Z,28.38
2023-01-22T20:26:48.742Z,28.00
2023-01-22T20:29:16.934Z,31.90
2023-01-22T20:31:44.777Z,26.33
2023-01-22T20:34:11.614Z,31.15
2023-01-22T20:36:38.892Z,34.65
2023-01-22T20:39:06.097Z,35.22
2023-01-22T20:41:34.382Z,33.10
2023-01-22T20:44:01.462Z,30.42
2023-01-22T20:46:30.243Z,29.10
2023-01-22T20:48:58.313Z,25.02
2023-01-22T20:51:28.570Z,33.90
2023-01-22T20:53:57.718Z,28.75
2023-01-22T20:56:31.542Z,31.73
2023-01-22T20:59:10.056Z,30.75
2023-01-22T21:01:37.332Z,34.10
2023-01-22T21:04:05.855Z,35.47
2023-01-22T21:06:35.397Z,31.05
2023-01-22T21:09:03.665Z,29.00
2023-01-22T21:11:33.101Z,32.63
2023-01-22T21:14:04.968Z,31.25
2023-01-22T21:16:36.511Z,31.83
2023-01-22T21:19:21.996Z,29.85
2023-01-22T21:21:49.302Z,34.47
2023-01-22T21:24:16.928Z,35.50
2023-01-22T21:26:44.570Z,43.85
2023-01-22T21:29:23.117Z,41.30
2023-01-22T21:31:52.447Z,40.70
2023-01-22T21:34:22.911Z,40.38
2023-01-22T21:36:54.260Z,39.28
2023-01-22T21:39:30.656Z,39.60
2023-01-22T21:42:16.556Z,38.08
2023-01-22T21:45:02.849Z,45.85
2023-01-22T21:47:30.433Z,43.15
2023-01-22T21:49:57.473Z,48.28
2023-01-22T21:52:24.384Z,49.88
2023-01-22T21:54:51.241Z,35.70
2023-01-22T21:57:18.211Z,41.67
2023-01-22T21:59:46.520Z,44.53
2023-01-22T22:02:18.992Z,39.08
2023-01-22T22:04:46.169Z,40.90
2023-01-22T22:07:13.229Z,39.03
2023-01-22T22:09:40.078Z,43.05
2023-01-22T22:12:07.201Z,39.28
2023-01-22T22:14:34.059Z,43.55
2023-01-22T22:17:01.207Z,44.00
2023-01-22T22:19:29.326Z,45.13
2023-01-22T22:21:56.150Z,42.95
2023-01-22T22:24:23.046Z,44.47
2023-01-22T22:26:50.205Z,41.22
2023-01-22T22:29:17.079Z,45.55
2023-01-22T22:31:44.505Z,44.08
2023-01-22T22:34:11.500Z,46.28
2023-01-22T22:36:38.486Z,41.80
2023-01-22T22:39:06.865Z,44.95
2023-01-22T22:41:36.137Z,46.60
2023-01-22T22:44:04.175Z,48.63
2023-01-22T22:46:35.698Z,44.92
2023-01-22T22:49:03.690Z,47.05
2023-01-22T22:51:37.442Z,49.33
2023-01-22T22:54:10.009Z,49.85
2023-01-22T22:56:37.176Z,47.08
2023-01-22T22:59:07.744Z,45.50
2023-01-22T23:01:37.614Z,49.33
2023-01-22T23:04:07.075Z,48.97
2023-01-22T23:06:36.201Z,49.88
2023-01-22T23:09:06.557Z,49.65
2023-01-22T23:11:36.284Z,54.00
2023-01-22T23:14:04.180Z,49.92
2023-01-22T23:16:37.028Z,54.72
2023-01-22T23:21:35.152Z,49.88
2023-01-22T23:24:03.281Z,48.50
2023-01-22T23:26:31.386Z,47.90
2023-01-22T23:29:02.362Z,49.10
2023-01-22T23:31:33.116Z,49.33
2023-01-22T23:34:01.227Z,44.03
2023-01-22T23:36:28.261Z,52.85
2023-01-22T23:38:55.164Z,49.30
2023-01-22T23:41:22.808Z,51.33
2023-01-22T23:43:50.609Z,52.53
2023-01-22T23:46:26.317Z,55.80
2023-01-22T23:48:55.096Z,49.45
2023-01-22T23:51:22.452Z,51.97
2023-01-22T23:53:51.760Z,53.85
2023-01-22T23:56:21.789Z,55.92
2023-01-22T23:58:48.760Z,50.05
